createdAt,value
2019-04-05T00:00:56.490Z,49.50
2019-04-05T00:03:24.836Z,49.50
2019-04-05T00:05:53.071Z,50.00
2019-04-05T00:08:21.337Z,49.70
2019-04-05T00:10:49.589Z,49.80
2019-04-05T00:13:17.835Z,49.70
2019-04-05T00:16:05.783Z,49.60
2019-04-05T00:18:34.019Z,49.60
2019-04-05T00:21:02.332Z,49.60
2019-04-05T00:23:30.670Z,49.70
2019-04-05T00:25:58.905Z,49.80
2019-04-05T00:28:27.137Z,49.70
2019-04-05T00:30:55.398Z,49.70
2019-04-05T00:33:23.650Z,49.70
2019-04-05T00:35:51.896Z,49.80
2019-04-05T00:38:20.235Z,49.80
2019-04-05T00:40:48.464Z,50.00
2019-04-05T00:43:16.698Z,50.00
2019-04-05T00:45:45.525Z,50.00
2019-04-05T00:48:13.771Z,50.10
2019-04-05T00:50:42.115Z,50.00
2019-04-05T00:53:10.429Z,50.00
2019-04-05T00:55:38.660Z,50.00
2019-04-05T00:58:06.902Z,50.00
2019-04-05T01:00:35.162Z,50.00
2019-04-05T01:03:03.522Z,50.00
2019-04-05T01:05:31.806Z,50.00
2019-04-05T01:08:00.121Z,50.10
2019-04-05T01:10:28.487Z,50.00
2019-04-05T01:12:56.855Z,50.00
2019-04-05T01:15:25.109Z,50.10
2019-04-05T01:17:53.350Z,50.20
2019-04-05T01:20:21.585Z,50.10
2019-04-05T01:22:49.845Z,50.20
2019-04-05T01:25:18.299Z,50.20
2019-04-05T01:27:48.479Z,50.30
2019-04-05T01:30:16.534Z,50.30
2019-04-05T01:32:44.765Z,50.20
2019-04-05T01:35:13.002Z,50.30
2019-04-05T01:37:41.346Z,50.40
2019-04-05T01:40:09.589Z,50.40
2019-04-05T01:42:37.913Z,50.30
2019-04-05T01:45:08.329Z,50.30
2019-04-05T01:47:36.875Z,50.40
2019-04-05T01:50:06.557Z,50.30
2019-04-05T01:52:35.089Z,50.40
2019-04-05T01:55:03.684Z,50.50
2019-04-05T01:57:32.186Z,50.50
2019-04-05T02:00:00.509Z,50.50
2019-04-05T02:02:28.745Z,50.50
2019-04-05T02:04:57.017Z,50.60
2019-04-05T02:07:25.279Z,50.70
2019-04-05T02:09:53.518Z,50.50
2019-04-05T02:12:21.834Z,50.50
2019-04-05T02:14:50.124Z,50.50
2019-04-05T02:17:18.408Z,50.60
2019-04-05T02:19:46.659Z,50.50
2019-04-05T02:22:14.928Z,50.50
2019-04-05T02:24:43.154Z,50.50
2019-04-05T02:27:13.050Z,50.40
2019-04-05T02:29:41.302Z,51.30
2019-04-05T02:32:09.545Z,50.40
2019-04-05T02:34:37.779Z,50.60
2019-04-05T02:37:06.075Z,50.50
2019-04-05T02:39:34.311Z,50.60
2019-04-05T02:42:02.544Z,50.60
2019-04-05T02:44:31.234Z,50.60
2019-04-05T02:46:59.481Z,50.90
2019-04-05T02:49:27.707Z,51.00
2019-04-05T02:51:55.951Z,50.90
2019-04-05T02:54:24.563Z,50.80
2019-04-05T02:56:52.788Z,50.80
2019-04-05T02:59:21.038Z,50.80
2019-04-05T03:01:49.545Z,50.80
2019-04-05T03:04:17.851Z,50.70
2019-04-05T03:06:46.205Z,50.80
2019-04-05T03:09:14.501Z,50.90
2019-04-05T03:11:42.739Z,50.80
2019-04-05T03:14:10.993Z,50.70
2019-04-05T03:16:41.821Z,50.70
2019-04-05T03:19:15.986Z,50.60
2019-04-05T03:21:45.780Z,50.80
2019-04-05T03:24:16.814Z,50.90
2019-04-05T03:26:48.352Z,50.90
2019-04-05T03:29:16.590Z,50.90
2019-04-05T03:31:44.918Z,50.90
2019-04-05T03:34:13.217Z,51.10
2019-04-05T03:36:41.458Z,51.00
2019-04-05T03:39:09.707Z,51.00
2019-04-05T03:41:37.934Z,51.10
2019-04-05T03:44:06.650Z,51.00
2019-04-05T03:46:34.894Z,51.10
2019-04-05T03:49:03.770Z,51.10
2019-04-05T03:51:32.357Z,51.10
2019-04-05T03:54:00.699Z,51.30
2019-04-05T03:56:28.990Z,51.30
2019-04-05T03:58:57.223Z,51.40
2019-04-05T04:01:25.751Z,51.40
2019-04-05T04:03:54.003Z,51.30
2019-04-05T04:06:22.658Z,51.30
2019-04-05T04:08:50.893Z,51.40
2019-04-05T04:11:19.225Z,51.50
2019-04-05T04:13:47.463Z,51.50
2019-04-05T04:16:15.713Z,51.60
2019-04-05T04:18:43.948Z,51.60
2019-04-05T04:21:36.630Z,51.70
2019-04-05T04:24:05.016Z,51.70
2019-04-05T04:26:33.383Z,51.70
2019-04-05T04:29:01.635Z,51.90
2019-04-05T04:31:29.870Z,51.90
2019-04-05T04:33:58.278Z,52.00
2019-04-05T04:36:26.548Z,52.00
2019-04-05T04:38:55.051Z,52.20
2019-04-05T04:41:23.282Z,52.90
2019-04-05T04:43:51.712Z,52.20
2019-04-05T04:46:19.950Z,52.20
2019-04-05T04:48:51.099Z,52.20
2019-04-05T04:51:19.390Z,52.20
2019-04-05T04:53:47.628Z,52.20
2019-04-05T04:56:15.874Z,52.30
2019-04-05T04:58:46.321Z,52.30
2019-04-05T05:01:14.162Z,52.40
2019-04-05T05:03:42.710Z,52.30
2019-04-05T05:06:11.042Z,52.40
2019-04-05T05:08:39.279Z,52.50
2019-04-05T05:11:14.469Z,52.50
2019-04-05T05:13:37.474Z,52.70
2019-04-05T05:16:05.711Z,52.60
2019-04-05T05:18:33.971Z,52.60
2019-04-05T05:21:02.214Z,52.60
2019-04-05T05:23:30.446Z,52.70
2019-04-05T05:25:58.686Z,52.70
2019-04-05T05:28:26.935Z,52.80
2019-04-05T05:30:55.169Z,52.80
2019-04-05T05:33:23.474Z,52.80
2019-04-05T05:35:51.783Z,52.80
2019-04-05T05:38:20.106Z,52.80
2019-04-05T05:40:48.439Z,52.90
2019-04-05T05:43:16.831Z,53.00
2019-04-05T05:45:45.129Z,53.00
2019-04-05T05:48:13.402Z,53.20
2019-04-05T05:50:41.708Z,53.20
2019-04-05T05:53:09.946Z,53.20
2019-04-05T05:55:38.178Z,53.20
2019-04-05T05:58:06.453Z,53.30
2019-04-05T06:00:34.781Z,53.30
2019-04-05T06:03:05.993Z,53.40
2019-04-05T06:05:35.878Z,53.30
2019-04-05T06:08:04.877Z,53.40
2019-04-05T06:10:33.114Z,53.50
2019-04-05T06:13:06.627Z,53.60
2019-04-05T06:15:32.942Z,53.70
2019-04-05T06:18:04.832Z,53.70
2019-04-05T06:20:31.142Z,54.00
2019-04-05T06:22:59.532Z,54.00
2019-04-05T06:25:27.766Z,54.20
2019-04-05T06:27:58.257Z,54.20
2019-04-05T06:30:28.780Z,54.30
2019-04-05T06:32:56.134Z,54.40
2019-04-05T06:35:24.377Z,54.40
2019-04-05T06:37:52.631Z,54.50
2019-04-05T06:40:20.863Z,55.30
2019-04-05T06:42:50.751Z,54.70
2019-04-05T06:45:19.003Z,54.70
2019-04-05T06:47:47.235Z,54.80
2019-04-05T06:50:15.479Z,54.90
2019-04-05T06:52:43.910Z,54.90
2019-04-05T06:55:12.139Z,54.90
2019-04-05T06:57:40.391Z,55.00
2019-04-05T07:00:08.621Z,55.10
2019-04-05T07:02:36.933Z,55.20
2019-04-05T07:05:06.876Z,55.30
2019-04-05T07:07:35.450Z,54.80
2019-04-05T07:10:04.516Z,55.50
2019-04-05T07:12:32.925Z,55.60
2019-04-05T07:15:01.213Z,55.80
2019-04-05T07:17:29.456Z,55.80
2019-04-05T07:19:57.709Z,55.90
2019-04-05T07:22:36.949Z,55.90
2019-04-05T07:24:55.995Z,55.80
2019-04-05T07:27:24.242Z,55.50
2019-04-05T07:29:52.482Z,55.00
2019-04-05T07:32:20.738Z,54.80
2019-04-05T07:34:49.008Z,55.00
2019-04-05T07:37:17.273Z,55.20
2019-04-05T07:39:45.557Z,55.30
2019-04-05T07:42:13.885Z,55.30
2019-04-05T07:44:42.127Z,55.40
2019-04-05T07:47:10.361Z,55.50
2019-04-05T07:49:38.611Z,55.70
2019-04-05T07:52:06.841Z,55.70
2019-04-05T07:54:35.084Z,55.70
2019-04-05T07:57:03.356Z,55.90
2019-04-05T07:59:31.681Z,55.10
2019-04-05T08:01:59.957Z,55.70
2019-04-05T08:04:28.386Z,56.10
2019-04-05T08:06:58.280Z,56.40
2019-04-05T08:09:26.578Z,56.50
2019-04-05T08:11:54.909Z,56.40
2019-04-05T08:14:23.145Z,56.30
2019-04-05T08:16:51.392Z,56.20
2019-04-05T08:19:19.635Z,56.20
2019-04-05T08:21:47.872Z,55.90
2019-04-05T08:24:16.110Z,55.80
2019-04-05T08:26:44.426Z,55.60
2019-04-05T08:29:12.677Z,55.60
2019-04-05T08:31:40.909Z,55.40
2019-04-05T08:34:09.161Z,55.30
2019-04-05T08:36:37.402Z,55.10
2019-04-05T08:39:07.478Z,54.90
2019-04-05T08:41:35.736Z,55.00
2019-04-05T08:44:04.909Z,54.80
2019-04-05T08:46:33.413Z,54.70
2019-04-05T08:49:10.566Z,53.90
2019-04-05T08:51:31.623Z,53.10
2019-04-05T08:53:59.867Z,51.90
2019-04-05T08:56:28.121Z,51.60
2019-04-05T08:58:56.444Z,51.00
2019-04-05T09:01:24.702Z,51.20
2019-04-05T09:03:53.358Z,51.20
2019-04-05T09:06:21.591Z,51.60
2019-04-05T09:08:49.899Z,51.80
2019-04-05T09:11:21.292Z,52.20
2019-04-05T09:13:49.534Z,52.20
2019-04-05T09:16:17.785Z,52.50
2019-04-05T09:18:46.044Z,53.20
2019-04-05T09:21:17.459Z,53.40
2019-04-05T09:23:44.396Z,52.30
2019-04-05T09:26:12.663Z,52.20
2019-04-05T09:28:40.962Z,52.20
2019-04-05T09:31:09.203Z,52.20
2019-04-05T09:33:37.499Z,52.60
2019-04-05T09:36:06.069Z,51.50
2019-04-05T09:38:34.305Z,51.50
2019-04-05T09:41:02.736Z,51.10
2019-04-05T09:43:30.972Z,50.90
2019-04-05T09:45:59.205Z,50.80
2019-04-05T09:48:27.462Z,50.40
2019-04-05T09:50:55.724Z,50.30
2019-04-05T09:53:24.017Z,50.50
2019-04-05T09:55:52.275Z,50.10
2019-04-05T09:58:20.597Z,50.60
2019-04-05T10:00:48.874Z,49.60
2019-04-05T10:03:17.237Z,48.80
2019-04-05T10:05:45.550Z,48.70
2019-04-05T10:08:13.841Z,48.90
2019-04-05T10:10:42.105Z,48.70
2019-04-05T10:13:10.679Z,48.20
2019-04-05T10:15:38.913Z,48.60
2019-04-05T10:18:07.166Z,48.60
2019-04-05T10:20:35.395Z,48.20
2019-04-05T10:23:03.626Z,48.60
2019-04-05T10:25:31.870Z,47.60
2019-04-05T10:28:00.119Z,47.60
2019-04-05T10:30:28.361Z,47.40
2019-04-05T10:32:56.678Z,47.40
2019-04-05T10:35:24.926Z,47.50
2019-04-05T10:37:53.181Z,47.20
2019-04-05T10:40:21.525Z,46.80
2019-04-05T10:42:49.778Z,46.30
2019-04-05T10:45:18.091Z,46.20
2019-04-05T10:47:46.398Z,47.10
2019-04-05T10:50:14.627Z,46.20
2019-04-05T10:52:42.882Z,46.10
2019-04-05T10:55:11.141Z,45.80
2019-04-05T10:57:39.381Z,45.40
2019-04-05T11:00:14.433Z,45.50
2019-04-05T11:02:42.965Z,45.00
2019-04-05T11:05:11.272Z,44.60
2019-04-05T11:07:39.509Z,45.00
2019-04-05T11:10:07.829Z,44.90
2019-04-05T11:12:36.066Z,45.20
2019-04-05T11:15:07.149Z,44.80
2019-04-05T11:17:35.418Z,44.80
2019-04-05T11:20:20.751Z,45.50
2019-04-05T11:22:38.946Z,44.80
2019-04-05T11:25:07.981Z,44.70
2019-04-05T11:27:36.485Z,44.60
2019-04-05T11:30:08.341Z,44.00
2019-04-05T11:32:36.599Z,43.80
2019-04-05T11:35:06.565Z,44.20
2019-04-05T11:37:35.045Z,44.00
2019-04-05T11:40:05.341Z,44.10
2019-04-05T11:42:33.747Z,43.70
2019-04-05T11:45:01.990Z,44.30
2019-04-05T11:47:30.242Z,43.80
2019-04-05T11:49:59.281Z,43.60
2019-04-05T11:52:27.584Z,43.00
2019-04-05T11:54:55.850Z,43.30
2019-04-05T11:57:24.208Z,43.00
2019-04-05T11:59:52.471Z,43.30
2019-04-05T12:02:22.364Z,43.00
2019-04-05T12:04:50.744Z,42.70
2019-04-05T12:07:21.741Z,42.60
2019-04-05T12:09:49.065Z,42.80
2019-04-05T12:12:17.307Z,42.50
2019-04-05T12:14:45.545Z,43.20
2019-04-05T12:17:14.097Z,42.70
2019-04-05T12:19:42.334Z,42.90
2019-04-05T12:22:10.582Z,42.30
2019-04-05T12:24:38.828Z,43.30
2019-04-05T12:27:07.089Z,42.60
2019-04-05T12:29:35.322Z,42.00
2019-04-05T12:32:03.601Z,42.10
2019-04-05T12:34:31.882Z,41.60
2019-04-05T12:37:00.169Z,41.50
2019-04-05T12:39:28.457Z,41.80
2019-04-05T12:41:56.704Z,41.40
2019-04-05T12:44:24.937Z,41.50
2019-04-05T12:46:53.190Z,41.00
2019-04-05T12:49:21.439Z,41.20
2019-04-05T12:51:49.671Z,41.00
2019-04-05T12:54:18.012Z,40.70
2019-04-05T12:56:46.247Z,40.00
2019-04-05T12:59:14.480Z,39.70
2019-04-05T13:01:43.533Z,40.40
2019-04-05T13:04:12.722Z,39.40
2019-04-05T13:06:42.312Z,39.30
2019-04-05T13:09:12.734Z,40.00
2019-04-05T13:11:41.216Z,39.60
2019-04-05T13:14:09.511Z,39.60
2019-04-05T13:16:37.937Z,39.70
2019-04-05T13:19:06.473Z,40.30
2019-04-05T13:21:34.878Z,39.90
2019-04-05T13:24:04.485Z,40.50
2019-04-05T13:26:33.087Z,40.10
2019-04-05T13:29:01.333Z,39.90
2019-04-05T13:31:29.670Z,39.90
2019-04-05T13:33:57.968Z,40.00
2019-04-05T13:36:26.249Z,39.50
2019-04-05T13:38:55.291Z,39.70
2019-04-05T13:41:24.269Z,39.80
2019-04-05T13:43:52.571Z,40.10
2019-04-05T13:46:22.585Z,40.10
2019-04-05T13:48:50.776Z,40.10
2019-04-05T13:51:27.743Z,40.40
2019-04-05T13:53:49.002Z,40.20
2019-04-05T13:56:17.268Z,40.00
2019-04-05T13:58:46.889Z,39.90
2019-04-05T14:01:15.329Z,39.90
2019-04-05T14:03:43.577Z,39.60
2019-04-05T14:06:11.804Z,39.40
2019-04-05T14:08:41.940Z,39.90
2019-04-05T14:11:11.153Z,39.70
2019-04-05T14:13:42.704Z,39.70
2019-04-05T14:16:12.249Z,39.50
2019-04-05T14:18:39.441Z,39.40
2019-04-05T14:21:08.341Z,39.60
2019-04-05T14:23:36.676Z,39.50
2019-04-05T14:26:05.529Z,39.40
2019-04-05T14:28:34.150Z,39.20
2019-04-05T14:31:03.209Z,39.40
2019-04-05T14:33:31.482Z,38.70
2019-04-05T14:35:59.723Z,39.10
2019-04-05T14:38:27.967Z,38.80
2019-04-05T14:40:56.224Z,38.80
2019-04-05T14:43:24.463Z,38.90
2019-04-05T14:45:52.731Z,38.40
2019-04-05T14:48:20.982Z,38.60
2019-04-05T14:50:49.212Z,38.40
2019-04-05T14:53:17.538Z,38.60
2019-04-05T14:55:47.469Z,38.60
2019-04-05T14:58:15.725Z,38.50
2019-04-05T15:00:44.462Z,38.30
2019-04-05T15:03:14.024Z,38.70
2019-04-05T15:05:42.333Z,38.90
2019-04-05T15:08:10.678Z,39.10
2019-04-05T15:10:38.918Z,39.20
2019-04-05T15:13:07.153Z,39.00
2019-04-05T15:15:35.420Z,39.10
2019-04-05T15:18:04.893Z,39.10
2019-04-05T15:20:34.909Z,39.90
2019-04-05T15:23:03.546Z,38.90
2019-04-05T15:25:31.770Z,39.00
2019-04-05T15:28:00.046Z,38.90
2019-04-05T15:30:28.293Z,38.50
2019-04-05T15:32:58.544Z,38.70
2019-04-05T15:35:28.267Z,38.80
2019-04-05T15:37:57.061Z,38.70
2019-04-05T15:40:25.299Z,38.90
2019-04-05T15:42:53.554Z,39.50
2019-04-05T15:45:21.868Z,39.00
2019-04-05T15:47:52.378Z,39.00
2019-04-05T15:50:22.066Z,38.90
2019-04-05T15:52:50.072Z,38.60
2019-04-05T15:55:18.315Z,38.80
2019-04-05T15:57:46.545Z,38.50
2019-04-05T16:00:19.870Z,38.80
2019-04-05T16:02:48.110Z,38.30
2019-04-05T16:05:16.336Z,38.00
2019-04-05T16:07:44.681Z,37.70
2019-04-05T16:10:12.918Z,37.70
2019-04-05T16:12:41.155Z,37.80
2019-04-05T16:15:09.404Z,37.80
2019-04-05T16:17:37.654Z,37.90
2019-04-05T16:20:08.397Z,37.80
2019-04-05T16:22:36.710Z,37.80
2019-04-05T16:25:07.673Z,37.70
2019-04-05T16:27:55.357Z,37.60
2019-04-05T16:30:23.670Z,37.50
2019-04-05T16:32:51.954Z,37.70
2019-04-05T16:35:20.194Z,37.70
2019-04-05T16:37:48.497Z,37.80
2019-04-05T16:40:16.733Z,37.90
2019-04-05T16:42:44.995Z,37.80
2019-04-05T16:45:13.231Z,37.80
2019-04-05T16:47:41.495Z,38.10
2019-04-05T16:50:09.790Z,38.10
2019-04-05T16:52:44.696Z,38.20
2019-04-05T16:55:08.065Z,38.20
2019-04-05T16:57:36.328Z,38.40
2019-04-05T17:00:10.462Z,38.30
2019-04-05T17:02:38.725Z,38.40
2019-04-05T17:05:07.303Z,38.20
2019-04-05T17:07:35.544Z,38.10
2019-04-05T17:10:04.140Z,38.20
2019-04-05T17:12:32.484Z,38.20
2019-04-05T17:15:00.741Z,38.50
2019-04-05T17:17:28.975Z,38.40
2019-04-05T17:19:57.469Z,38.50
2019-04-05T17:22:25.699Z,38.50
2019-04-05T17:24:53.944Z,38.50
2019-04-05T17:27:22.826Z,38.60
2019-04-05T17:29:51.715Z,38.60
2019-04-05T17:32:19.948Z,38.70
2019-04-05T17:34:48.193Z,38.90
2019-04-05T17:37:16.432Z,38.90
2019-04-05T17:39:44.670Z,39.10
2019-04-05T17:42:12.918Z,39.30
2019-04-05T17:44:41.159Z,39.30
2019-04-05T17:47:09.398Z,39.40
2019-04-05T17:49:37.663Z,39.30
2019-04-05T17:52:05.887Z,39.40
2019-04-05T17:54:34.130Z,39.50
2019-04-05T17:57:02.449Z,39.50
2019-04-05T17:59:30.678Z,39.60
2019-04-05T18:01:58.989Z,39.60
2019-04-05T18:04:27.329Z,39.70
2019-04-05T18:06:55.566Z,39.70
2019-04-05T18:09:23.813Z,39.80
2019-04-05T18:11:52.067Z,40.00
2019-04-05T18:14:23.257Z,40.00
2019-04-05T18:16:51.490Z,40.00
2019-04-05T18:19:19.750Z,40.10
2019-04-05T18:21:47.995Z,40.20
2019-04-05T18:24:16.235Z,40.30
2019-04-05T18:26:44.494Z,40.30
2019-04-05T18:29:13.049Z,40.20
2019-04-05T18:31:41.290Z,40.40
2019-04-05T18:34:09.538Z,40.50
2019-04-05T18:36:37.795Z,40.50
2019-04-05T18:39:07.092Z,40.60
2019-04-05T18:41:35.446Z,40.70
2019-04-05T18:44:05.362Z,40.80
2019-04-05T18:46:33.601Z,40.80
2019-04-05T18:49:02.023Z,40.80
2019-04-05T18:51:30.253Z,40.80
2019-04-05T18:53:58.505Z,41.00
2019-04-05T18:56:26.766Z,41.10
2019-04-05T18:58:55.020Z,41.10
2019-04-05T19:01:23.317Z,41.20
2019-04-05T19:03:51.586Z,41.00
2019-04-05T19:06:19.833Z,41.20
2019-04-05T19:08:48.065Z,41.30
2019-04-05T19:11:16.321Z,41.20
2019-04-05T19:13:44.607Z,41.40
2019-04-05T19:16:12.825Z,41.40
2019-04-05T19:18:41.084Z,41.50
2019-04-05T19:21:09.318Z,41.50
2019-04-05T19:23:50.014Z,41.70
2019-04-05T19:26:07.604Z,41.70
2019-04-05T19:28:35.846Z,41.70
2019-04-05T19:48:35.674Z,42.20
2019-04-05T19:51:05.040Z,42.20
2019-04-05T19:53:33.274Z,42.20
2019-04-05T19:56:01.835Z,42.20
2019-04-05T19:58:30.089Z,42.30
2019-04-05T20:00:59.254Z,42.40
2019-04-05T20:03:27.628Z,42.40
2019-04-05T20:05:55.861Z,42.40
2019-04-05T20:08:24.098Z,42.50
2019-04-05T20:10:52.353Z,42.50
2019-04-05T20:13:20.594Z,42.70
2019-04-05T20:15:48.903Z,42.70
2019-04-05T20:18:17.148Z,42.70
2019-04-05T20:20:47.022Z,42.80
2019-04-05T20:23:15.261Z,42.90
2019-04-05T20:25:43.524Z,43.00
2019-04-05T20:28:11.753Z,43.10
2019-04-05T20:30:39.993Z,43.20
2019-04-05T20:33:09.590Z,43.10
2019-04-05T20:35:37.847Z,43.20
2019-04-05T20:38:06.088Z,43.30
2019-04-05T20:40:34.342Z,43.30
2019-04-05T20:43:02.587Z,43.40
2019-04-05T20:45:30.822Z,43.40
2019-04-05T20:47:59.090Z,43.50
2019-04-05T20:50:27.361Z,43.50
2019-04-05T20:52:57.243Z,43.60
2019-04-05T20:55:27.137Z,43.60
2019-04-05T20:57:55.387Z,43.60
2019-04-05T21:00:23.623Z,43.60
2019-04-05T21:02:51.888Z,43.70
2019-04-05T21:05:25.304Z,43.90
2019-04-05T21:07:50.089Z,44.60
2019-04-05T21:10:20.996Z,44.00
2019-04-05T21:12:49.230Z,44.00
2019-04-05T21:15:17.463Z,44.00
2019-04-05T21:17:45.725Z,44.00
2019-04-05T21:20:14.022Z,44.10
2019-04-05T21:22:42.265Z,44.10
2019-04-05T21:25:10.513Z,44.20
2019-04-05T21:27:38.753Z,44.20
2019-04-05T21:30:07.415Z,44.40
2019-04-05T21:32:35.700Z,45.10
2019-04-05T21:35:07.153Z,44.40
2019-04-05T21:37:35.477Z,44.50
2019-04-05T21:40:06.043Z,44.50
2019-04-05T21:42:34.409Z,44.50
2019-04-05T21:45:02.794Z,44.90
2019-04-05T21:47:31.155Z,44.50
2019-04-05T21:49:59.454Z,44.50
2019-04-05T21:52:27.883Z,44.80
2019-04-05T21:54:56.294Z,44.70
2019-04-05T21:57:24.643Z,44.90
2019-04-05T21:59:53.029Z,44.90
2019-04-05T22:02:21.506Z,45.00
2019-04-05T22:04:49.859Z,45.00
2019-04-05T22:07:18.404Z,45.10
2019-04-05T22:09:46.814Z,45.30
2019-04-05T22:12:34.241Z,45.20
2019-04-05T22:15:02.743Z,46.00
2019-04-05T22:17:31.147Z,45.20
2019-04-05T22:19:59.544Z,45.20
2019-04-05T22:22:28.201Z,45.20
2019-04-05T22:24:59.497Z,45.40
2019-04-05T22:27:26.617Z,45.50
2019-04-05T22:29:55.037Z,45.50
2019-04-05T22:32:23.747Z,45.60
2019-04-05T22:34:52.144Z,45.60
2019-04-05T22:37:20.668Z,45.60
2019-04-05T22:39:49.056Z,45.70
2019-04-05T22:42:17.456Z,45.90
2019-04-05T22:44:45.870Z,45.80
2019-04-05T22:47:14.262Z,45.90
2019-04-05T22:49:42.668Z,46.00
2019-04-05T22:52:12.701Z,46.00
2019-04-05T22:54:41.095Z,45.90
2019-04-05T22:57:09.476Z,46.00
2019-04-05T22:59:37.890Z,46.00
2019-04-05T23:02:06.272Z,46.10
2019-04-05T23:04:34.672Z,46.10
2019-04-05T23:07:03.352Z,46.30
2019-04-05T23:09:31.754Z,46.40
2019-04-05T23:12:02.549Z,46.30
2019-04-05T23:14:30.959Z,46.40
2019-04-05T23:16:59.414Z,47.00
2019-04-05T23:19:27.759Z,46.40
2019-04-05T23:21:56.170Z,46.40
2019-04-05T23:24:24.560Z,46.40
2019-04-05T23:26:53.071Z,46.40
2019-04-05T23:29:21.575Z,46.70
2019-04-05T23:31:49.960Z,46.60
2019-04-05T23:34:18.411Z,47.30
2019-04-05T23:36:46.827Z,46.50
2019-04-05T23:39:15.437Z,46.60
2019-04-05T23:41:43.824Z,46.40
2019-04-05T23:44:31.700Z,46.70
2019-04-05T23:47:00.085Z,46.60
2019-04-05T23:49:28.457Z,46.60
2019-04-05T23:51:56.867Z,46.80
2019-04-05T23:54:25.256Z,46.70
2019-04-05T23:56:53.659Z,46.70
2019-04-05T23:59:22.085Z,46.60
